Forest Lake, Illinois
Current Conditions -  °F | °C
As of 10:52 AM on Thursday 27 Nov 2014 (Local Time) from KPWK Reporting Station
Overcast Overcast  
Wind Chill: 13°   Ceiling: 2200
Heat Index: 25°   Visibility: 10mi
Dew Point: 16°   Wind: 15mph
Humidity: 69%   Direction: 310°NW
Pressure: 30.35"   Gusts: NA
Location:  42.201°N, 88.0504°W
Report Text: KPWK 271652Z 31013KT 10SM OVC022 M04/M09 A3035 RMK AO2 SLP287 T10391089
Loading
Personal Weather Stations






























Interactive Weather Map New forecast layout! Learn more

10-Day Weather Forecast

Advertisements
Track Severe Weather on mobile